San Simon, Arizona
Current Conditions -  °F | °C
As of 4:15 AM on Friday 31 Oct 2014 (Local Time) from KLSB Reporting Station
Clear Clear  
Wind Chill: 14°   Ceiling: Unl
Heat Index: 14°   Visibility: 10mi
Dew Point:   Wind: 13mph
Humidity: 38%   Direction: 120°ESE
Pressure: 30.21"   Gusts: NA
Location:  32.27°N, 109.23°W
Report Text: KLSB 311115Z AUTO 12011KT 10SM CLR 14/00 A3021 RMK AO2
Loading
Personal Weather Stations






























Interactive Weather Map
Tropical Storm Tracking
New forecast layout! Learn more

10-Day Weather Forecast

Advertisements
Track Severe Weather on mobile